Time;durP1;ratioP1;P1;durP2;ratioP2;P2;SDS_P1;SDS_P2;PMS_P1;PMS_P2;Temp;Humidity;BMP_temperature;BMP_pressure;BME280_temperature;BME280_humidity;BME280_pressure;Samples;Min_cycle;Max_cycle;Signal;HPM_P1;HPM_P2
2021/12/13 10:32:46;;;;;;;;;4.00;4.00;;;;;12.60;64.57;102571.09;5121216;27;45540;-91
2021/12/13 10:35:22;;;;;;;;;5.00;1.50;;;;;12.73;63.64;102558.94;5068778;27;45917;-91
2021/12/13 10:37:52;;;;;;;;;5.25;5.25;;;;;12.79;62.67;102530.28;5077103;27;45301;-93
2021/12/13 10:40:34;;;;;;;;;5.00;4.00;;;;;13.11;62.57;102554.47;5079171;27;45427;-92
2021/12/13 10:43:11;;;;;;;;;5.00;5.00;;;;;13.15;61.71;102537.41;5074403;27;47946;-93
2021/12/13 10:45:40;;;;;;;;;6.00;5.00;;;;;13.43;61.80;102550.28;5095447;27;45745;-94
2021/12/13 10:48:08;;;;;;;;;3.75;3.25;;;;;13.46;61.79;102543.00;5072161;27;45637;-94
2021/12/13 10:50:40;;;;;;;;;4.00;4.00;;;;;13.70;60.73;102547.19;5042041;27;45278;-94
2021/12/13 10:53:07;;;;;;;;;2.25;2.25;;;;;13.83;60.75;102556.28;5058073;27;47106;-94
2021/12/13 10:55:37;;;;;;;;;4.75;4.75;;;;;13.84;60.26;102528.66;5070501;27;45818;-95
2021/12/13 10:58:03;;;;;;;;;5.00;5.00;;;;;14.06;59.79;102554.22;5053123;27;45528;-94
2021/12/13 11:00:36;;;;;;;;;8.00;7.00;;;;;14.18;60.16;102541.16;5040681;27;45427;-94
2021/12/13 11:03:13;;;;;;;;;4.00;4.00;;;;;14.22;59.52;102526.72;5058991;27;47006;-94
2021/12/13 11:05:39;;;;;;;;;6.75;5.50;;;;;14.35;59.27;102531.34;5059746;27;45447;-94
2021/12/13 11:08:05;;;;;;;;;5.00;5.00;;;;;14.52;59.02;102535.78;5074615;27;45494;-94
2021/12/13 11:10:36;;;;;;;;;4.00;4.00;;;;;14.66;58.66;102539.50;5042712;27;45577;-94
2021/12/13 11:13:02;;;;;;;;;6.00;6.00;;;;;14.62;58.44;102517.44;5042060;27;47218;-94
2021/12/13 11:15:31;;;;;;;;;6.00;4.00;;;;;14.54;58.22;102500.97;5063134;27;45796;-94
2021/12/13 11:17:57;;;;;;;;;7.00;7.00;;;;;14.85;57.95;102544.66;5090792;27;45458;-94
2021/12/13 11:20:33;;;;;;;;;4.00;4.00;;;;;14.75;58.37;102514.06;5076166;27;45554;-92
2021/12/13 11:22:58;;;;;;;;;4.25;4.25;;;;;14.95;57.78;102523.63;5075951;27;47299;-94
2021/12/13 11:25:36;;;;;;;;;5.50;5.25;;;;;14.95;57.47;102519.16;5051722;27;45405;-94
2021/12/13 11:28:01;;;;;;;;;5.75;5.00;;;;;15.12;57.38;102529.81;5059564;27;45236;-95
2021/12/13 11:30:29;;;;;;;;;5.25;5.25;;;;;15.17;57.11;102528.59;5046351;27;45278;-94
2021/12/13 11:32:58;;;;;;;;;4.50;4.25;;;;;15.30;57.69;102535.91;5055991;27;48081;-93
2021/12/13 11:36:18;;;;;;;;;4.00;3.00;;;;;15.09;57.49;102493.44;5090761;27;45977;-93
2021/12/13 11:39:18;;;;;;;;;6.20;4.60;;;;;15.39;57.14;102531.81;4999447;28;45566;-94
2021/12/13 11:42:21;;;;;;;;;6.00;5.00;;;;;15.43;57.26;102530.72;4995505;28;45287;-94
2021/12/13 11:44:49;;;;;;;;;6.00;6.00;;;;;15.47;56.77;102524.22;4989942;28;47185;-94
2021/12/13 11:47:32;;;;;;;;;4.00;4.00;;;;;15.47;57.11;102509.97;4966430;28;45719;-94
2021/12/13 11:50:31;;;;;;;;;4.40;3.60;;;;;15.57;57.16;102524.53;4975825;28;52870;-94
2021/12/13 11:53:30;;;;;;;;;5.75;5.00;;;;;15.61;56.70;102512.66;4990035;28;45626;-92
2021/12/13 11:56:15;;;;;;;;;4.00;4.00;;;;;15.64;56.26;102508.09;4960113;28;47125;-94
2021/12/13 11:59:05;;;;;;;;;5.00;5.00;;;;;15.68;56.54;102507.81;4975568;28;45350;-94
2021/12/13 12:01:45;;;;;;;;;6.60;6.00;;;;;15.71;56.24;102499.59;4975399;28;45561;-92
2021/12/13 12:05:19;;;;;;;;;5.50;5.00;;;;;15.55;56.84;102456.84;4984378;28;45621;-92
2021/12/13 12:08:02;;;;;;;;;6.80;4.80;;;;;15.80;56.44;102491.97;4983092;28;46074;-91
2021/12/13 12:10:28;;;;;;;;;5.80;5.80;;;;;15.81;56.55;102478.47;4983366;28;45808;-92
2021/12/13 12:13:04;;;;;;;;;5.75;5.00;;;;;15.86;56.69;102480.03;4977511;28;45449;-93
2021/12/13 12:15:38;;;;;;;;;7.50;5.50;;;;;15.88;56.11;102478.09;5042450;27;45562;-93
2021/12/13 12:18:06;;;;;;;;;5.00;5.00;;;;;15.64;56.19;102443.88;5034478;27;48046;-91
2021/12/13 12:20:34;;;;;;;;;4.40;4.40;;;;;15.61;56.36;102429.75;5069270;27;45383;-94
2021/12/13 12:23:30;;;;;;;;;4.80;4.00;;;;;15.66;55.95;102432.13;5056349;27;45381;-94
2021/12/13 12:25:57;;;;;;;;;5.25;5.25;;;;;15.71;56.58;102430.03;5081216;27;45628;-92
2021/12/13 12:28:23;;;;;;;;;7.25;4.50;;;;;15.78;55.85;102434.97;5053745;27;46993;-93
2021/12/13 12:30:50;;;;;;;;;5.75;4.50;;;;;15.86;55.90;102447.91;5061724;27;45435;-93
2021/12/13 12:33:23;;;;;;;;;4.60;4.60;;;;;16.08;56.14;102478.69;5075399;27;45466;-93
2021/12/13 12:35:50;;;;;;;;;6.25;5.25;;;;;15.91;56.03;102440.44;5076092;27;45493;-93
2021/12/13 12:38:24;;;;;;;;;4.60;3.60;;;;;16.15;56.05;102469.31;5079496;27;47023;-93
2021/12/13 12:41:11;;;;;;;;;6.25;5.50;;;;;15.98;56.26;102449.78;5042035;27;45606;-93
2021/12/13 12:43:52;;;;;;;;;5.80;4.00;;;;;16.17;55.77;102461.19;5064288;27;45433;-93
2021/12/13 12:46:17;;;;;;;;;2.60;2.60;;;;;16.03;55.89;102439.69;5037780;28;45387;-92
2021/12/13 12:48:44;;;;;;;;;5.00;5.00;;;;;16.07;55.62;102439.47;5069888;27;45599;-92
2021/12/13 12:51:19;;;;;;;;;6.40;5.40;;;;;16.12;55.77;102434.72;5067928;27;45546;-96
2021/12/13 12:53:53;;;;;;;;;4.40;4.00;;;;;16.30;55.93;102458.56;5064815;27;45361;-96
2021/12/13 12:56:19;;;;;;;;;7.00;4.75;;;;;16.32;55.54;102454.00;5084345;27;45523;-94
2021/12/13 12:59:04;;;;;;;;;6.00;5.75;;;;;16.35;55.95;102453.81;5077683;27;47049;-94
2021/12/13 13:01:36;;;;;;;;;1.00;0.00;;;;;16.21;55.64;102426.06;5061529;27;45762;-95
2021/12/13 13:04:15;;;;;;;;;4.00;4.00;;;;;16.13;55.60;102402.47;5048277;27;46971;-90
2021/12/13 13:07:00;;;;;;;;;4.00;4.00;;;;;16.42;55.84;102432.81;5071494;27;45664;-89
2021/12/13 13:09:37;;;;;;;;;4.40;4.00;;;;;16.33;56.12;102415.53;5074487;27;45498;-92
2021/12/13 13:12:02;;;;;;;;;4.00;4.00;;;;;16.46;55.81;102424.50;5058720;27;45489;-91
2021/12/13 13:14:30;;;;;;;;;5.00;5.00;;;;;16.23;55.90;102384.00;5060044;27;45652;-93
2021/12/13 13:16:58;;;;;;;;;4.60;4.40;;;;;16.51;55.86;102423.31;5056094;27;45413;-90
2021/12/13 13:19:32;;;;;;;;;4.40;4.40;;;;;16.46;55.98;102419.13;5045086;27;48389;-90
2021/12/13 13:22:11;;;;;;;;;11.80;6.40;;;;;16.39;56.73;102401.72;5061185;27;45589;-89
2021/12/13 13:24:50;;;;;;;;;4.00;4.00;;;;;16.46;56.04;102403.06;5043185;28;45497;-96
2021/12/13 13:27:16;;;;;;;;;7.80;6.60;;;;;16.55;55.58;102409.59;5043601;28;45691;-94
2021/12/13 13:29:42;;;;;;;;;7.00;3.75;;;;;16.56;55.68;102410.47;5059584;27;48407;-94
2021/12/13 13:32:10;;;;;;;;;4.25;3.75;;;;;16.53;55.67;102414.22;5084658;27;45319;-93
2021/12/13 13:34:42;;;;;;;;;4.20;4.20;;;;;16.32;55.47;102373.66;5070561;28;45656;-92
2021/12/13 13:37:28;;;;;;;;;4.75;3.75;;;;;16.63;55.63;102421.66;5062234;27;45314;-92
2021/12/13 13:39:59;;;;;;;;;4.40;4.40;;;;;16.45;55.75;102390.63;5074946;27;47621;-93
2021/12/13 13:42:29;;;;;;;;;4.80;4.20;;;;;16.47;55.30;102387.81;5043379;27;45789;-93
2021/12/13 13:44:57;;;;;;;;;7.60;4.80;;;;;16.65;55.28;102411.69;5047362;27;45430;-94
2021/12/13 13:47:37;;;;;;;;;4.50;4.50;;;;;16.64;55.60;102405.47;5063037;27;45468;-95
2021/12/13 13:50:51;;;;;;;;;1.00;1.00;;;;;16.73;55.30;102417.38;5038526;27;48369;-95
2021/12/13 13:53:53;;;;;;;;;5.20;4.00;;;;;16.64;55.13;102394.75;5061610;27;45615;-94
2021/12/13 13:56:27;;;;;;;;;4.80;4.80;;;;;16.65;55.16;102401.81;5067224;27;46093;-92
2021/12/13 13:58:52;;;;;;;;;4.20;3.60;;;;;16.81;54.93;102427.59;5056823;27;45617;-91
2021/12/13 14:01:36;;;;;;;;;7.75;4.50;;;;;16.83;55.30;102423.00;5079339;27;47992;-92
2021/12/13 14:04:16;;;;;;;;;5.00;5.00;;;;;16.56;54.96;102379.19;5077572;27;45543;-91
2021/12/13 14:06:43;;;;;;;;;7.00;5.60;;;;;16.78;55.14;102417.09;5049145;27;45266;-92
2021/12/13 14:09:13;;;;;;;;;3.80;3.80;;;;;16.79;54.89;102410.75;5034712;28;45570;-92
2021/12/13 14:11:51;;;;;;;;;6.00;5.60;;;;;16.83;54.88;102414.97;5033464;27;47528;-92
2021/12/13 14:14:17;;;;;;;;;6.60;5.00;;;;;16.93;54.47;102429.44;5050285;28;45511;-92
2021/12/13 14:16:45;;;;;;;;;6.20;5.00;;;;;16.74;54.63;102383.41;5030920;27;45395;-92
2021/12/13 14:19:35;;;;;;;;;5.25;4.75;;;;;16.95;54.40;102415.97;5057780;28;45352;-92
2021/12/13 14:22:01;;;;;;;;;10.20;4.40;;;;;16.89;54.30;102402.97;5043034;27;48501;-92
2021/12/13 14:24:31;;;;;;;;;7.75;5.75;;;;;16.69;54.23;102368.47;5078787;27;45469;-92
2021/12/13 14:27:18;;;;;;;;;5.00;4.00;;;;;16.91;54.52;102388.50;5060882;27;45380;-92
2021/12/13 14:29:44;;;;;;;;;5.75;5.75;;;;;16.87;54.16;102375.38;5044856;27;45302;-92
2021/12/13 14:32:10;;;;;;;;;5.50;5.25;;;;;16.78;54.30;102364.31;5047432;28;46870;-92
2021/12/13 14:34:54;;;;;;;;;6.40;6.20;;;;;16.83;53.90;102366.72;5058598;27;45682;-93
2021/12/13 14:37:19;;;;;;;;;5.40;4.40;;;;;17.13;53.93;102415.63;5075076;27;45335;-89
2021/12/13 14:39:47;;;;;;;;;3.00;3.00;;;;;16.83;54.21;102366.72;5041123;28;45450;-92
2021/12/13 14:42:18;;;;;;;;;7.80;6.80;;;;;16.93;54.27;102378.50;5044833;27;46873;-92
2021/12/13 14:44:55;;;;;;;;;3.60;3.60;;;;;16.89;54.07;102363.63;5073334;27;45459;-93
2021/12/13 14:47:22;;;;;;;;;6.40;6.00;;;;;16.92;54.02;102365.22;5043106;27;45374;-92
2021/12/13 14:49:50;;;;;;;;;5.20;4.60;;;;;17.00;54.02;102383.47;5044781;27;45673;-93
2021/12/13 14:52:21;;;;;;;;;7.80;5.00;;;;;17.14;53.89;102403.97;5043574;27;47737;-92
2021/12/13 14:54:48;;;;;;;;;6.00;5.40;;;;;16.91;53.96;102358.13;5070180;27;45385;-93
2021/12/13 14:57:20;;;;;;;;;12.00;5.60;;;;;17.24;53.79;102417.63;5062972;27;45357;-92
2021/12/13 14:59:51;;;;;;;;;5.80;5.00;;;;;17.14;53.83;102407.50;5063412;27;45391;-91
2021/12/13 15:02:22;;;;;;;;;5.20;5.20;;;;;16.95;54.43;102380.25;5060518;27;46929;-95
2021/12/13 15:04:48;;;;;;;;;4.80;4.80;;;;;17.04;54.18;102390.31;5056695;27;45041;-93
2021/12/13 15:07:17;;;;;;;;;3.75;3.75;;;;;17.12;54.01;102404.06;5061493;27;45414;-92
2021/12/13 15:09:51;;;;;;;;;4.80;4.80;;;;;17.05;54.11;102386.66;5053182;28;45438;-94
2021/12/13 15:12:21;;;;;;;;;5.00;3.00;;;;;17.14;54.28;102402.13;5049603;28;48272;-95
2021/12/13 15:14:56;;;;;;;;;4.00;4.00;;;;;17.17;54.54;102402.88;5060919;27;45550;-93
2021/12/13 15:17:23;;;;;;;;;7.80;4.60;;;;;17.27;54.39;102422.75;5084408;27;45315;-94
2021/12/13 15:19:53;;;;;;;;;5.40;4.20;;;;;17.00;54.69;102386.13;5076568;27;45599;-92
2021/12/13 15:22:18;;;;;;;;;6.20;5.00;;;;;16.99;54.57;102382.59;5059877;27;47307;-95
2021/12/13 15:24:44;;;;;;;;;4.00;4.00;;;;;17.18;54.59;102420.72;5081731;27;45281;-93
2021/12/13 15:27:12;;;;;;;;;4.00;4.00;;;;;17.18;55.06;102423.41;5063658;27;45613;-93
2021/12/13 15:29:38;;;;;;;;;3.00;3.00;;;;;17.03;54.67;102402.00;5062391;27;45370;-92
2021/12/13 15:32:06;;;;;;;;;5.00;4.00;;;;;17.11;54.75;102414.88;5055867;27;48528;-91
2021/12/13 15:34:38;;;;;;;;;9.60;6.20;;;;;17.10;54.63;102414.03;5054882;27;45353;-91
2021/12/13 15:37:19;;;;;;;;;5.80;5.80;;;;;17.20;54.75;102421.47;5063154;27;46006;-91
2021/12/13 15:40:00;;;;;;;;;3.40;3.40;;;;;17.02;54.44;102402.97;5055035;28;45510;-91
2021/12/13 15:42:26;;;;;;;;;6.00;5.00;;;;;17.06;54.52;102404.50;5079070;27;47131;-93
2021/12/13 15:44:53;;;;;;;;;1.00;1.00;;;;;17.03;54.54;102400.19;5057984;27;45546;-91
2021/12/13 15:47:40;;;;;;;;;4.60;4.00;;;;;17.03;54.60;102399.34;5041298;27;45543;-90
2021/12/13 15:50:25;;;;;;;;;4.60;4.60;;;;;17.20;54.14;102434.88;5062671;27;47513;-89
2021/12/13 15:53:07;;;;;;;;;4.40;4.40;;;;;17.30;54.20;102454.72;5032259;27;47274;-96
2021/12/13 15:55:41;;;;;;;;;7.60;5.60;;;;;16.98;54.60;102401.47;5061367;27;45518;-92
2021/12/13 15:58:13;;;;;;;;;3.80;3.00;;;;;17.03;54.41;102418.97;5044353;27;45650;-88
2021/12/13 16:00:41;;;;;;;;;3.60;2.80;;;;;17.03;54.92;102418.97;5069217;27;45471;-88
2021/12/13 16:06:30;;;;;;;;;6.20;6.20;;;;;17.25;54.67;102462.25;4998254;28;45568;-93
2021/12/13 16:08:55;;;;;;;;;4.60;4.00;;;;;17.25;54.65;102463.09;4949142;28;45590;-93
2021/12/13 16:11:36;;;;;;;;;6.00;3.00;;;;;17.25;54.91;102462.25;4981990;28;45305;-93
2021/12/13 16:14:29;;;;;;;;;5.20;5.20;;;;;17.02;54.47;102424.41;4981803;28;47547;-91
2021/12/13 16:17:14;;;;;;;;;3.60;3.00;;;;;16.99;54.77;102430.00;4951924;28;45474;-91
2021/12/13 16:19:50;;;;;;;;;8.00;5.40;;;;;16.91;54.76;102423.34;4977829;28;45406;-91
2021/12/13 16:23:02;;;;;;;;;8.00;7.75;;;;;17.02;54.56;102435.16;4963934;28;45681;-91
2021/12/13 16:25:46;;;;;;;;;6.20;6.20;;;;;17.02;54.71;102440.50;4983903;28;45835;-89
2021/12/13 16:28:26;;;;;;;;;5.00;5.00;;;;;16.98;54.18;102425.59;4948526;28;45934;-91
2021/12/13 16:31:09;;;;;;;;;7.80;6.00;;;;;16.98;54.11;102436.34;4968173;28;45580;-90
2021/12/13 16:33:43;;;;;;;;;8.50;7.00;;;;;17.01;54.01;102444.16;4960556;28;45666;-93
2021/12/13 16:36:29;;;;;;;;;6.20;6.00;;;;;17.23;54.24;102477.59;4946188;28;47475;-94
2021/12/13 16:39:08;;;;;;;;;9.20;7.60;;;;;17.17;54.30;102475.28;4961705;28;45464;-93
2021/12/13 16:41:34;;;;;;;;;10.80;9.00;;;;;17.20;54.40;102483.16;5070846;27;45464;-96
2021/12/13 16:44:04;;;;;;;;;8.25;7.25;;;;;17.10;54.53;102466.78;5042000;27;45403;-95
2021/12/13 16:46:30;;;;;;;;;7.80;7.80;;;;;17.06;54.80;102463.47;5076197;27;47358;-95
2021/12/13 16:48:59;;;;;;;;;9.50;4.75;;;;;17.00;54.59;102456.72;5067124;27;45369;-94
2021/12/13 16:51:51;;;;;;;;;;;;;;;;;;;;;
2021/12/13 17:07:44;;;;;;;;;11.25;9.50;;;;;16.89;55.16;102459.25;5167015;22;45230;-96
2021/12/13 17:27:08;;;;;;;;;14.00;13.50;;;;;17.19;55.41;102510.94;5782943;22;45994;-96
2021/12/13 17:29:43;;;;;;;;;12.50;12.50;;;;;17.22;55.33;102510.72;5058564;28;45585;-95
2021/12/13 17:32:08;;;;;;;;;11.00;11.00;;;;;17.21;55.20;102509.88;5057288;28;47609;-94
2021/12/13 17:34:41;;;;;;;;;14.75;13.25;;;;;17.17;55.67;102499.44;5057202;28;45590;-94
2021/12/13 17:37:14;;;;;;;;;13.80;11.20;;;;;17.03;55.35;102483.31;5057212;28;45256;-93
2021/12/13 17:40:16;;;;;;;;;13.25;9.50;;;;;17.15;55.64;102495.00;5048127;28;45549;-94
2021/12/13 17:42:49;;;;;;;;;15.00;12.25;;;;;17.24;55.57;102519.56;5056279;28;46892;-93
2021/12/13 17:45:22;;;;;;;;;16.25;15.25;;;;;17.24;55.60;102520.38;5035183;28;45682;-93
2021/12/13 17:47:51;;;;;;;;;11.40;11.20;;;;;16.95;55.87;102477.63;5046440;28;45454;-94
2021/12/13 17:50:19;;;;;;;;;11.75;11.00;;;;;17.07;55.39;102502.72;5049087;28;45526;-93
2021/12/13 17:53:21;;;;;;;;;13.25;9.75;;;;;17.00;55.02;102490.69;5039622;28;47142;-93
2021/12/13 17:55:52;;;;;;;;;13.00;13.00;;;;;17.15;55.43;102516.47;4976607;28;46108;-92
2021/12/13 17:58:25;;;;;;;;;15.25;14.25;;;;;17.21;55.07;102536.69;4962251;28;45880;-92
2021/12/13 18:00:56;;;;;;;;;13.50;13.50;;;;;17.04;54.86;102502.94;4946805;28;45667;-91
2021/12/13 18:03:23;;;;;;;;;16.75;13.50;;;;;17.23;55.07;102552.69;4961461;28;45677;-94
2021/12/13 18:05:50;;;;;;;;;13.60;13.60;;;;;16.92;54.88;102505.47;4980091;28;45978;-94
2021/12/13 18:08:18;;;;;;;;;15.50;14.25;;;;;16.98;54.77;102522.13;4967844;28;44821;-92
2021/12/13 18:10:45;;;;;;;;;13.75;12.25;;;;;16.91;54.96;102514.50;4964557;28;45546;-94
2021/12/13 18:13:14;;;;;;;;;17.00;15.50;;;;;16.91;54.75;102522.53;4960476;28;48789;-92
2021/12/13 18:15:41;;;;;;;;;15.40;14.00;;;;;16.81;54.84;102513.34;4964034;28;45316;-92
2021/12/13 18:18:21;;;;;;;;;13.75;12.00;;;;;16.84;54.58;102521.19;4962983;28;45328;-94
2021/12/13 18:21:00;;;;;;;;;14.75;14.00;;;;;16.93;54.36;102544.72;4963042;28;45609;-93
2021/12/13 18:23:41;;;;;;;;;13.25;13.00;;;;;16.78;54.64;102524.31;4961984;28;47149;-95
2021/12/13 18:26:08;;;;;;;;;17.20;16.80;;;;;16.93;54.37;102550.09;4955596;28;45879;-92
2021/12/13 18:28:35;;;;;;;;;13.75;13.75;;;;;16.69;54.45;102515.88;4966298;28;45692;-94
2021/12/13 18:31:07;;;;;;;;;17.50;16.50;;;;;16.75;54.39;102525.34;5043629;28;45662;-94
2021/12/13 18:33:41;;;;;;;;;15.00;15.00;;;;;17.01;54.50;102572.88;5027813;28;48299;-91
2021/12/13 18:36:13;;;;;;;;;15.20;15.20;;;;;16.97;54.55;102569.53;5033557;28;45502;-91
2021/12/13 18:38:53;;;;;;;;;17.75;17.00;;;;;16.95;54.48;102573.28;5060345;28;45511;-90
2021/12/13 18:41:22;;;;;;;;;16.75;16.75;;;;;16.85;54.55;102568.50;5041616;28;45480;-92
2021/12/13 18:44:04;;;;;;;;;18.00;16.50;;;;;16.89;54.59;102580.75;5062803;28;45328;-91
2021/12/13 18:46:43;;;;;;;;;21.75;19.25;;;;;16.67;54.50;102544.59;5073845;28;45441;-90
2021/12/13 18:49:14;;;;;;;;;20.25;19.25;;;;;16.67;54.47;102559.81;5023680;28;45469;-91
2021/12/13 18:51:45;;;;;;;;;23.25;22.50;;;;;16.72;54.44;102573.81;5042116;28;45537;-92
2021/12/13 18:54:13;;;;;;;;;21.75;20.00;;;;;16.67;54.35;102568.72;5044313;28;47471;-91
2021/12/13 18:56:39;;;;;;;;;22.00;22.00;;;;;16.68;54.47;102570.47;5026023;28;45777;-91
2021/12/13 18:59:20;;;;;;;;;16.50;16.25;;;;;16.75;54.24;102594.19;5029279;28;45449;-92
2021/12/13 19:01:48;;;;;;;;;26.25;23.00;;;;;16.52;54.46;102556.31;5033946;28;45490;-91
2021/12/13 19:04:25;;;;;;;;;23.00;22.00;;;;;16.41;54.32;102544.47;5039553;28;47652;-91
2021/12/13 19:06:55;;;;;;;;;21.25;19.75;;;;;16.53;54.46;102571.44;5046698;28;45428;-90
2021/12/13 19:09:41;;;;;;;;;26.50;25.25;;;;;16.47;54.38;102561.97;5032243;28;45350;-90
2021/12/13 19:12:10;;;;;;;;;22.00;22.00;;;;;16.47;54.34;102568.19;5043722;28;45334;-91
2021/12/13 19:14:42;;;;;;;;;28.00;27.50;;;;;16.35;54.82;102555.59;5046855;28;46904;-91
2021/12/13 19:17:11;;;;;;;;;24.00;22.25;;;;;16.27;54.57;102548.88;5035667;28;45952;-91
2021/12/13 19:19:40;;;;;;;;;27.00;27.00;;;;;16.31;54.58;102562.94;5038809;28;45368;-91
2021/12/13 19:22:12;;;;;;;;;28.00;26.67;;;;;16.34;54.47;102575.28;5012575;28;45575;-93
2021/12/13 19:24:40;;;;;;;;;35.33;30.33;;;;;16.45;54.51;102594.22;5063254;28;45604;-90
2021/12/13 19:27:30;;;;;;;;;36.67;33.33;;;;;16.43;54.07;102601.50;5052655;28;46054;-91
2021/12/13 19:30:05;;;;;;;;;30.67;30.00;;;;;16.31;54.22;102581.69;5042285;28;45466;-91
2021/12/13 19:32:35;;;;;;;;;31.00;29.67;;;;;16.15;54.68;102568.38;5039661;28;45286;-92
2021/12/13 19:35:09;;;;;;;;;36.67;30.67;;;;;16.10;54.33;102562.44;5026303;28;47259;-90
2021/12/13 19:37:46;;;;;;;;;32.00;29.67;;;;;16.15;54.38;102573.72;5059642;28;45524;-92
2021/12/13 19:40:36;;;;;;;;;25.33;24.67;;;;;15.93;54.34;102548.25;5047068;28;45288;-91
2021/12/13 19:43:04;;;;;;;;;33.00;31.33;;;;;16.29;54.44;102614.88;5050348;28;45170;-91
2021/12/13 19:45:38;;;;;;;;;32.33;31.00;;;;;16.13;54.31;102583.69;5064874;28;47039;-91
2021/12/13 19:48:11;;;;;;;;;32.67;30.00;;;;;16.15;54.50;102587.13;5027344;28;46085;-94
2021/12/13 19:50:43;;;;;;;;;35.00;31.00;;;;;16.00;54.49;102568.38;5020625;28;45364;-94
2021/12/13 19:53:09;;;;;;;;;31.33;27.33;;;;;16.12;54.45;102598.88;5042760;28;45429;-91
2021/12/13 19:55:34;;;;;;;;;32.67;29.33;;;;;15.94;54.56;102572.28;5051814;28;46940;-92
2021/12/13 20:44:54;;;;;;;;;;;;;;;;;;;;;
2021/12/13 20:54:45;;;;;;;;;51.00;41.00;;;;;15.78;53.81;102585.72;4720043;30;46327;-93
2021/12/13 20:57:23;;;;;;;;;;;;;;;;;;;;;
2021/12/13 21:00:14;;;;;;;;;55.00;44.00;;;;;15.94;53.44;102601.72;4715297;30;69189;-95
2021/12/13 21:03:04;;;;;;;;;;;;;;;;;;;;;
2021/12/13 21:05:37;;;;;;;;;53.00;43.00;;;;;15.96;53.68;102598.94;4715819;30;75284;-95
2021/12/13 21:12:17;;;;;;;;;52.67;43.00;;;;;15.82;52.75;102586.41;4654192;30;45573;-95
2021/12/13 21:18:46;;;;;;;;;59.33;48.00;;;;;15.87;53.38;102610.19;4633665;30;46388;-94
2021/12/13 21:22:02;;;;;;;;;59.00;47.00;;;;;15.71;52.84;102595.06;4624058;30;45518;-93
2021/12/13 21:24:57;;;;;;;;;60.67;48.67;;;;;15.72;52.91;102602.13;4612185;30;45615;-93
2021/12/13 21:31:04;;;;;;;;;61.33;48.67;;;;;15.98;53.29;102644.38;4907727;24;45662;-93
2021/12/13 21:34:19;;;;;;;;;;;;;;;;;;;;;
2021/12/13 21:40:22;;;;;;;;;57.67;46.00;;;;;15.91;52.72;102654.56;4728760;29;45843;-93
2021/12/13 21:43:32;;;;;;;;;;;;;;;;;;;;;
2021/12/13 21:46:14;;;;;;;;;59.33;48.00;;;;;15.77;53.24;102647.38;4678288;30;74083;-93
2021/12/13 21:48:44;;;;;;;;;62.00;49.00;;;;;15.55;52.95;102617.38;4675568;30;45676;-93
2021/12/13 21:51:27;;;;;;;;;;;;;;;;;;;;;
2021/12/13 21:56:31;;;;;;;;;52.33;41.67;;;;;15.76;53.14;102656.34;4829162;24;71462;-95
